sensor_id;sensor_type;location;lat;lon;timestamp;P1;durP1;ratioP1;P2;durP2;ratioP2
45548;SDS011;31270;48.328;10.096;2022-12-18T00:01:56;128.10;;;42.10;;
45548;SDS011;31270;48.328;10.096;2022-12-18T00:04:24;117.80;;;41.13;;
45548;SDS011;31270;48.328;10.096;2022-12-18T00:06:50;117.63;;;39.37;;
45548;SDS011;31270;48.328;10.096;2022-12-18T00:09:16;132.20;;;40.53;;
45548;SDS011;31270;48.328;10.096;2022-12-18T00:11:42;113.80;;;41.60;;
45548;SDS011;31270;48.328;10.096;2022-12-18T00:14:08;100.30;;;38.20;;
45548;SDS011;31270;48.328;10.096;2022-12-18T00:16:36;112.83;;;39.50;;
45548;SDS011;31270;48.328;10.096;2022-12-18T00:19:03;119.77;;;40.27;;
45548;SDS011;31270;48.328;10.096;2022-12-18T00:21:30;111.73;;;38.90;;
45548;SDS011;31270;48.328;10.096;2022-12-18T00:23:57;117.73;;;40.60;;
45548;SDS011;31270;48.328;10.096;2022-12-18T00:26:28;125.07;;;40.33;;
45548;SDS011;31270;48.328;10.096;2022-12-18T00:28:59;111.97;;;40.17;;
45548;SDS011;31270;48.328;10.096;2022-12-18T00:31:30;100.83;;;36.57;;
45548;SDS011;31270;48.328;10.096;2022-12-18T00:33:56;105.03;;;37.53;;
45548;SDS011;31270;48.328;10.096;2022-12-18T00:36:23;112.23;;;38.67;;
45548;SDS011;31270;48.328;10.096;2022-12-18T00:38:57;120.07;;;40.97;;
45548;SDS011;31270;48.328;10.096;2022-12-18T00:41:24;107.07;;;37.50;;
45548;SDS011;31270;48.328;10.096;2022-12-18T00:44:13;99.80;;;38.20;;
45548;SDS011;31270;48.328;10.096;2022-12-18T00:46:40;112.60;;;38.40;;
45548;SDS011;31270;48.328;10.096;2022-12-18T00:49:07;110.80;;;37.80;;
45548;SDS011;31270;48.328;10.096;2022-12-18T00:51:33;99.73;;;39.30;;
45548;SDS011;31270;48.328;10.096;2022-12-18T00:53:58;112.10;;;39.20;;
45548;SDS011;31270;48.328;10.096;2022-12-18T00:56:25;119.97;;;41.47;;
45548;SDS011;31270;48.328;10.096;2022-12-18T00:58:50;109.03;;;42.73;;
45548;SDS011;31270;48.328;10.096;2022-12-18T01:01:16;117.77;;;40.93;;
45548;SDS011;31270;48.328;10.096;2022-12-18T01:03:42;125.07;;;39.80;;
45548;SDS011;31270;48.328;10.096;2022-12-18T01:06:10;104.33;;;36.63;;
45548;SDS011;31270;48.328;10.096;2022-12-18T01:08:37;125.03;;;40.20;;
45548;SDS011;31270;48.328;10.096;2022-12-18T01:11:07;116.73;;;40.03;;
45548;SDS011;31270;48.328;10.096;2022-12-18T01:13:34;115.87;;;38.63;;
45548;SDS011;31270;48.328;10.096;2022-12-18T01:15:59;106.73;;;37.60;;
45548;SDS011;31270;48.328;10.096;2022-12-18T01:18:25;116.70;;;38.63;;
45548;SDS011;31270;48.328;10.096;2022-12-18T01:20:50;115.53;;;37.70;;
45548;SDS011;31270;48.328;10.096;2022-12-18T01:23:16;114.00;;;38.23;;
45548;SDS011;31270;48.328;10.096;2022-12-18T01:25:42;115.17;;;39.93;;
45548;SDS011;31270;48.328;10.096;2022-12-18T01:28:07;117.50;;;39.27;;
45548;SDS011;31270;48.328;10.096;2022-12-18T01:30:33;116.03;;;38.47;;
45548;SDS011;31270;48.328;10.096;2022-12-18T01:32:59;99.10;;;34.73;;
45548;SDS011;31270;48.328;10.096;2022-12-18T01:35:24;117.07;;;38.73;;
45548;SDS011;31270;48.328;10.096;2022-12-18T01:37:53;126.43;;;38.37;;
45548;SDS011;31270;48.328;10.096;2022-12-18T01:40:19;100.77;;;36.37;;
45548;SDS011;31270;48.328;10.096;2022-12-18T01:42:48;115.97;;;39.20;;
45548;SDS011;31270;48.328;10.096;2022-12-18T01:47:44;113.97;;;37.57;;
45548;SDS011;31270;48.328;10.096;2022-12-18T01:53:11;116.50;;;38.53;;
45548;SDS011;31270;48.328;10.096;2022-12-18T01:55:47;91.00;;;35.43;;
45548;SDS011;31270;48.328;10.096;2022-12-18T01:58:14;120.00;;;37.63;;
45548;SDS011;31270;48.328;10.096;2022-12-18T02:00:41;102.07;;;35.67;;
45548;SDS011;31270;48.328;10.096;2022-12-18T02:03:07;102.40;;;36.67;;
45548;SDS011;31270;48.328;10.096;2022-12-18T02:08:20;106.27;;;36.20;;
45548;SDS011;31270;48.328;10.096;2022-12-18T02:10:57;107.67;;;35.30;;
45548;SDS011;31270;48.328;10.096;2022-12-18T02:13:46;103.53;;;37.63;;
45548;SDS011;31270;48.328;10.096;2022-12-18T02:19:06;95.37;;;35.83;;
45548;SDS011;31270;48.328;10.096;2022-12-18T02:22:09;111.47;;;35.80;;
45548;SDS011;31270;48.328;10.096;2022-12-18T02:25:09;92.37;;;34.57;;
45548;SDS011;31270;48.328;10.096;2022-12-18T02:27:43;111.13;;;36.70;;
45548;SDS011;31270;48.328;10.096;2022-12-18T02:30:12;90.97;;;34.97;;
45548;SDS011;31270;48.328;10.096;2022-12-18T02:32:43;95.67;;;36.97;;
45548;SDS011;31270;48.328;10.096;2022-12-18T02:35:13;106.27;;;34.70;;
45548;SDS011;31270;48.328;10.096;2022-12-18T02:37:43;104.80;;;34.93;;
45548;SDS011;31270;48.328;10.096;2022-12-18T02:40:11;101.90;;;36.20;;
45548;SDS011;31270;48.328;10.096;2022-12-18T02:42:39;116.20;;;38.57;;
45548;SDS011;31270;48.328;10.096;2022-12-18T02:45:05;100.40;;;36.50;;
45548;SDS011;31270;48.328;10.096;2022-12-18T02:47:32;107.50;;;35.37;;
45548;SDS011;31270;48.328;10.096;2022-12-18T02:50:10;95.97;;;36.40;;
45548;SDS011;31270;48.328;10.096;2022-12-18T02:55:40;99.73;;;35.57;;
45548;SDS011;31270;48.328;10.096;2022-12-18T03:00:59;90.77;;;35.00;;
45548;SDS011;31270;48.328;10.096;2022-12-18T03:03:42;103.43;;;36.77;;
45548;SDS011;31270;48.328;10.096;2022-12-18T03:06:26;103.80;;;35.57;;
45548;SDS011;31270;48.328;10.096;2022-12-18T03:09:07;101.83;;;33.77;;
45548;SDS011;31270;48.328;10.096;2022-12-18T03:11:40;119.47;;;38.73;;
45548;SDS011;31270;48.328;10.096;2022-12-18T03:14:29;96.87;;;35.83;;
45548;SDS011;31270;48.328;10.096;2022-12-18T03:16:57;111.30;;;38.20;;
45548;SDS011;31270;48.328;10.096;2022-12-18T03:19:29;103.57;;;35.60;;
45548;SDS011;31270;48.328;10.096;2022-12-18T03:21:58;103.63;;;35.80;;
45548;SDS011;31270;48.328;10.096;2022-12-18T03:24:28;105.87;;;35.40;;
45548;SDS011;31270;48.328;10.096;2022-12-18T03:26:58;108.03;;;35.40;;
45548;SDS011;31270;48.328;10.096;2022-12-18T03:32:00;107.83;;;37.37;;
45548;SDS011;31270;48.328;10.096;2022-12-18T03:34:30;101.27;;;37.30;;
45548;SDS011;31270;48.328;10.096;2022-12-18T03:36:58;118.83;;;39.33;;
45548;SDS011;31270;48.328;10.096;2022-12-18T03:39:24;107.93;;;38.87;;
45548;SDS011;31270;48.328;10.096;2022-12-18T03:42:10;107.67;;;38.70;;
45548;SDS011;31270;48.328;10.096;2022-12-18T03:44:44;109.13;;;39.10;;
45548;SDS011;31270;48.328;10.096;2022-12-18T03:47:36;120.30;;;38.57;;
45548;SDS011;31270;48.328;10.096;2022-12-18T03:50:39;109.90;;;38.03;;
45548;SDS011;31270;48.328;10.096;2022-12-18T03:56:14;106.33;;;35.63;;
45548;SDS011;31270;48.328;10.096;2022-12-18T03:58:41;115.03;;;40.47;;
45548;SDS011;31270;48.328;10.096;2022-12-18T04:01:09;107.57;;;37.77;;
45548;SDS011;31270;48.328;10.096;2022-12-18T04:03:38;120.30;;;38.93;;
45548;SDS011;31270;48.328;10.096;2022-12-18T04:06:05;107.37;;;37.50;;
45548;SDS011;31270;48.328;10.096;2022-12-18T04:08:31;111.67;;;38.27;;
45548;SDS011;31270;48.328;10.096;2022-12-18T04:10:59;124.27;;;40.00;;
45548;SDS011;31270;48.328;10.096;2022-12-18T04:13:31;111.80;;;39.57;;
45548;SDS011;31270;48.328;10.096;2022-12-18T04:16:00;109.80;;;40.07;;
45548;SDS011;31270;48.328;10.096;2022-12-18T04:18:26;118.70;;;38.07;;
45548;SDS011;31270;48.328;10.096;2022-12-18T04:20:52;108.10;;;38.83;;
45548;SDS011;31270;48.328;10.096;2022-12-18T04:23:17;109.73;;;37.73;;
45548;SDS011;31270;48.328;10.096;2022-12-18T04:25:43;102.40;;;38.00;;
45548;SDS011;31270;48.328;10.096;2022-12-18T04:28:09;112.47;;;37.80;;
45548;SDS011;31270;48.328;10.096;2022-12-18T04:30:34;109.53;;;38.03;;
45548;SDS011;31270;48.328;10.096;2022-12-18T04:33:00;99.27;;;37.10;;
45548;SDS011;31270;48.328;10.096;2022-12-18T04:35:25;106.00;;;37.93;;
45548;SDS011;31270;48.328;10.096;2022-12-18T04:37:51;103.00;;;35.60;;
45548;SDS011;31270;48.328;10.096;2022-12-18T04:40:17;104.43;;;36.30;;
45548;SDS011;31270;48.328;10.096;2022-12-18T04:42:43;106.77;;;38.63;;
45548;SDS011;31270;48.328;10.096;2022-12-18T04:45:08;107.37;;;35.10;;
45548;SDS011;31270;48.328;10.096;2022-12-18T04:47:34;107.57;;;37.00;;
45548;SDS011;31270;48.328;10.096;2022-12-18T04:50:00;104.90;;;38.93;;
45548;SDS011;31270;48.328;10.096;2022-12-18T04:52:26;114.97;;;37.67;;
45548;SDS011;31270;48.328;10.096;2022-12-18T04:54:52;105.53;;;37.00;;
45548;SDS011;31270;48.328;10.096;2022-12-18T04:57:17;101.73;;;35.60;;
45548;SDS011;31270;48.328;10.096;2022-12-18T04:59:43;115.30;;;37.30;;
45548;SDS011;31270;48.328;10.096;2022-12-18T05:02:09;109.97;;;36.77;;
45548;SDS011;31270;48.328;10.096;2022-12-18T05:04:35;103.27;;;35.50;;
45548;SDS011;31270;48.328;10.096;2022-12-18T05:07:00;106.73;;;36.33;;
45548;SDS011;31270;48.328;10.096;2022-12-18T05:09:26;107.73;;;37.73;;
45548;SDS011;31270;48.328;10.096;2022-12-18T05:11:52;105.60;;;35.70;;
45548;SDS011;31270;48.328;10.096;2022-12-18T05:14:17;103.20;;;34.73;;
45548;SDS011;31270;48.328;10.096;2022-12-18T05:16:43;104.30;;;34.00;;
45548;SDS011;31270;48.328;10.096;2022-12-18T05:19:09;116.60;;;35.80;;
45548;SDS011;31270;48.328;10.096;2022-12-18T05:21:34;105.10;;;36.20;;
45548;SDS011;31270;48.328;10.096;2022-12-18T05:24:00;114.07;;;37.70;;
45548;SDS011;31270;48.328;10.096;2022-12-18T05:26:25;103.43;;;34.53;;
45548;SDS011;31270;48.328;10.096;2022-12-18T05:28:51;111.50;;;36.23;;
45548;SDS011;31270;48.328;10.096;2022-12-18T05:31:17;94.47;;;33.60;;
45548;SDS011;31270;48.328;10.096;2022-12-18T05:33:42;108.47;;;35.07;;
45548;SDS011;31270;48.328;10.096;2022-12-18T05:36:08;114.80;;;36.27;;
45548;SDS011;31270;48.328;10.096;2022-12-18T05:38:35;104.43;;;35.13;;
45548;SDS011;31270;48.328;10.096;2022-12-18T05:41:03;101.73;;;34.40;;
45548;SDS011;31270;48.328;10.096;2022-12-18T05:43:29;113.30;;;36.53;;
45548;SDS011;31270;48.328;10.096;2022-12-18T05:45:55;103.83;;;33.73;;
45548;SDS011;31270;48.328;10.096;2022-12-18T05:48:22;106.00;;;34.63;;
45548;SDS011;31270;48.328;10.096;2022-12-18T05:50:48;108.50;;;34.40;;
45548;SDS011;31270;48.328;10.096;2022-12-18T05:53:16;96.33;;;32.73;;
45548;SDS011;31270;48.328;10.096;2022-12-18T05:55:44;106.90;;;36.40;;
45548;SDS011;31270;48.328;10.096;2022-12-18T05:58:11;103.60;;;34.50;;
45548;SDS011;31270;48.328;10.096;2022-12-18T06:00:38;101.67;;;32.93;;
45548;SDS011;31270;48.328;10.096;2022-12-18T06:03:05;98.67;;;34.27;;
45548;SDS011;31270;48.328;10.096;2022-12-18T06:05:39;108.57;;;34.83;;
45548;SDS011;31270;48.328;10.096;2022-12-18T06:08:06;102.97;;;34.70;;
45548;SDS011;31270;48.328;10.096;2022-12-18T06:10:32;116.60;;;34.93;;
45548;SDS011;31270;48.328;10.096;2022-12-18T06:12:58;95.97;;;34.63;;
45548;SDS011;31270;48.328;10.096;2022-12-18T06:15:25;114.80;;;35.77;;
45548;SDS011;31270;48.328;10.096;2022-12-18T06:17:51;102.83;;;34.33;;
45548;SDS011;31270;48.328;10.096;2022-12-18T06:20:16;108.97;;;36.63;;
45548;SDS011;31270;48.328;10.096;2022-12-18T06:22:42;108.37;;;35.83;;
45548;SDS011;31270;48.328;10.096;2022-12-18T06:25:08;114.97;;;35.80;;
45548;SDS011;31270;48.328;10.096;2022-12-18T06:27:34;114.23;;;35.83;;
45548;SDS011;31270;48.328;10.096;2022-12-18T06:29:59;108.60;;;36.30;;
45548;SDS011;31270;48.328;10.096;2022-12-18T06:32:25;109.07;;;37.00;;
45548;SDS011;31270;48.328;10.096;2022-12-18T06:34:51;102.47;;;35.83;;
45548;SDS011;31270;48.328;10.096;2022-12-18T06:37:18;104.80;;;36.37;;
45548;SDS011;31270;48.328;10.096;2022-12-18T06:39:43;120.40;;;35.07;;
45548;SDS011;31270;48.328;10.096;2022-12-18T06:42:09;104.47;;;36.93;;
45548;SDS011;31270;48.328;10.096;2022-12-18T06:44:36;122.03;;;39.10;;
45548;SDS011;31270;48.328;10.096;2022-12-18T06:47:02;126.87;;;35.13;;
45548;SDS011;31270;48.328;10.096;2022-12-18T06:49:27;100.37;;;35.53;;
45548;SDS011;31270;48.328;10.096;2022-12-18T06:51:53;132.90;;;39.70;;
45548;SDS011;31270;48.328;10.096;2022-12-18T06:54:19;109.83;;;38.87;;
45548;SDS011;31270;48.328;10.096;2022-12-18T06:56:45;120.73;;;38.07;;
45548;SDS011;31270;48.328;10.096;2022-12-18T06:59:12;139.43;;;44.67;;
45548;SDS011;31270;48.328;10.096;2022-12-18T07:01:38;150.53;;;49.73;;
45548;SDS011;31270;48.328;10.096;2022-12-18T07:04:03;135.50;;;48.20;;
45548;SDS011;31270;48.328;10.096;2022-12-18T07:06:29;151.53;;;49.83;;
45548;SDS011;31270;48.328;10.096;2022-12-18T07:09:01;126.47;;;43.63;;
45548;SDS011;31270;48.328;10.096;2022-12-18T07:11:27;126.43;;;40.10;;
45548;SDS011;31270;48.328;10.096;2022-12-18T07:13:53;115.90;;;39.47;;
45548;SDS011;31270;48.328;10.096;2022-12-18T07:16:19;123.90;;;38.70;;
45548;SDS011;31270;48.328;10.096;2022-12-18T07:18:46;117.60;;;39.93;;
45548;SDS011;31270;48.328;10.096;2022-12-18T07:21:14;125.37;;;39.87;;
45548;SDS011;31270;48.328;10.096;2022-12-18T07:23:41;117.70;;;35.17;;
45548;SDS011;31270;48.328;10.096;2022-12-18T07:26:08;112.10;;;36.77;;
45548;SDS011;31270;48.328;10.096;2022-12-18T07:28:35;138.60;;;45.83;;
45548;SDS011;31270;48.328;10.096;2022-12-18T07:31:03;111.20;;;42.80;;
45548;SDS011;31270;48.328;10.096;2022-12-18T07:33:29;123.47;;;39.20;;
45548;SDS011;31270;48.328;10.096;2022-12-18T07:35:55;127.17;;;38.27;;
45548;SDS011;31270;48.328;10.096;2022-12-18T07:38:21;115.70;;;38.70;;
45548;SDS011;31270;48.328;10.096;2022-12-18T07:40:47;119.33;;;37.07;;
45548;SDS011;31270;48.328;10.096;2022-12-18T07:43:12;107.50;;;36.57;;
45548;SDS011;31270;48.328;10.096;2022-12-18T07:45:38;108.37;;;36.47;;
45548;SDS011;31270;48.328;10.096;2022-12-18T07:48:04;107.70;;;33.90;;
45548;SDS011;31270;48.328;10.096;2022-12-18T07:50:30;210.87;;;81.90;;
45548;SDS011;31270;48.328;10.096;2022-12-18T07:52:56;140.67;;;46.67;;
45548;SDS011;31270;48.328;10.096;2022-12-18T07:55:25;113.57;;;36.67;;
45548;SDS011;31270;48.328;10.096;2022-12-18T07:57:52;117.93;;;37.60;;
45548;SDS011;31270;48.328;10.096;2022-12-18T08:00:18;117.63;;;36.03;;
45548;SDS011;31270;48.328;10.096;2022-12-18T08:02:43;116.73;;;37.80;;
45548;SDS011;31270;48.328;10.096;2022-12-18T08:05:09;131.10;;;39.10;;
45548;SDS011;31270;48.328;10.096;2022-12-18T08:07:35;115.67;;;37.90;;
45548;SDS011;31270;48.328;10.096;2022-12-18T08:10:00;122.10;;;37.63;;
45548;SDS011;31270;48.328;10.096;2022-12-18T08:12:26;113.87;;;36.37;;
45548;SDS011;31270;48.328;10.096;2022-12-18T08:14:51;122.63;;;35.67;;
45548;SDS011;31270;48.328;10.096;2022-12-18T08:17:17;118.17;;;37.77;;
45548;SDS011;31270;48.328;10.096;2022-12-18T08:19:44;127.43;;;39.10;;
45548;SDS011;31270;48.328;10.096;2022-12-18T08:22:11;110.67;;;36.13;;
45548;SDS011;31270;48.328;10.096;2022-12-18T08:24:37;132.87;;;38.93;;
45548;SDS011;31270;48.328;10.096;2022-12-18T08:27:02;120.87;;;37.97;;
45548;SDS011;31270;48.328;10.096;2022-12-18T08:29:28;114.40;;;36.17;;
45548;SDS011;31270;48.328;10.096;2022-12-18T08:31:55;112.97;;;37.40;;
45548;SDS011;31270;48.328;10.096;2022-12-18T08:34:21;98.20;;;36.03;;
45548;SDS011;31270;48.328;10.096;2022-12-18T08:36:47;110.43;;;36.93;;
45548;SDS011;31270;48.328;10.096;2022-12-18T08:39:12;112.37;;;34.87;;
45548;SDS011;31270;48.328;10.096;2022-12-18T08:41:38;123.23;;;39.17;;
45548;SDS011;31270;48.328;10.096;2022-12-18T08:44:03;119.97;;;39.37;;
45548;SDS011;31270;48.328;10.096;2022-12-18T08:46:48;105.17;;;36.50;;
45548;SDS011;31270;48.328;10.096;2022-12-18T08:49:13;105.77;;;35.67;;
45548;SDS011;31270;48.328;10.096;2022-12-18T08:51:39;108.27;;;37.00;;
45548;SDS011;31270;48.328;10.096;2022-12-18T08:54:05;111.57;;;37.63;;
45548;SDS011;31270;48.328;10.096;2022-12-18T08:56:31;105.73;;;35.47;;
45548;SDS011;31270;48.328;10.096;2022-12-18T08:58:58;88.57;;;32.83;;
45548;SDS011;31270;48.328;10.096;2022-12-18T09:01:23;104.60;;;34.37;;
45548;SDS011;31270;48.328;10.096;2022-12-18T09:03:49;84.10;;;29.50;;
45548;SDS011;31270;48.328;10.096;2022-12-18T09:06:16;76.27;;;27.50;;
45548;SDS011;31270;48.328;10.096;2022-12-18T09:08:44;65.87;;;25.43;;
45548;SDS011;31270;48.328;10.096;2022-12-18T09:11:14;70.10;;;25.07;;
45548;SDS011;31270;48.328;10.096;2022-12-18T09:13:45;70.03;;;27.43;;
45548;SDS011;31270;48.328;10.096;2022-12-18T09:16:10;66.93;;;24.57;;
45548;SDS011;31270;48.328;10.096;2022-12-18T09:18:36;68.97;;;25.67;;
45548;SDS011;31270;48.328;10.096;2022-12-18T09:21:09;66.63;;;25.67;;
45548;SDS011;31270;48.328;10.096;2022-12-18T09:23:42;62.40;;;23.73;;
45548;SDS011;31270;48.328;10.096;2022-12-18T09:26:08;59.73;;;23.70;;
45548;SDS011;31270;48.328;10.096;2022-12-18T09:28:33;58.63;;;24.97;;
45548;SDS011;31270;48.328;10.096;2022-12-18T09:31:02;60.30;;;23.17;;
45548;SDS011;31270;48.328;10.096;2022-12-18T09:33:30;53.17;;;21.10;;
45548;SDS011;31270;48.328;10.096;2022-12-18T09:35:55;53.23;;;21.37;;
45548;SDS011;31270;48.328;10.096;2022-12-18T09:38:22;60.07;;;22.83;;
45548;SDS011;31270;48.328;10.096;2022-12-18T09:40:49;62.77;;;22.20;;
45548;SDS011;31270;48.328;10.096;2022-12-18T09:43:28;51.97;;;21.67;;
45548;SDS011;31270;48.328;10.096;2022-12-18T09:46:05;50.23;;;21.53;;
45548;SDS011;31270;48.328;10.096;2022-12-18T09:48:38;57.07;;;21.63;;
45548;SDS011;31270;48.328;10.096;2022-12-18T09:51:15;50.80;;;20.57;;
45548;SDS011;31270;48.328;10.096;2022-12-18T09:53:47;57.80;;;22.17;;
45548;SDS011;31270;48.328;10.096;2022-12-18T09:56:19;48.57;;;21.67;;
45548;SDS011;31270;48.328;10.096;2022-12-18T10:01:36;54.47;;;22.27;;
45548;SDS011;31270;48.328;10.096;2022-12-18T10:04:01;60.43;;;23.60;;
45548;SDS011;31270;48.328;10.096;2022-12-18T10:12:19;60.53;;;23.03;;
45548;SDS011;31270;48.328;10.096;2022-12-18T10:15:00;59.03;;;21.97;;
45548;SDS011;31270;48.328;10.096;2022-12-18T10:22:48;52.23;;;21.33;;
45548;SDS011;31270;48.328;10.096;2022-12-18T10:25:20;61.93;;;22.80;;
45548;SDS011;31270;48.328;10.096;2022-12-18T10:27:57;60.53;;;23.13;;
45548;SDS011;31270;48.328;10.096;2022-12-18T10:30:31;51.00;;;20.70;;
45548;SDS011;31270;48.328;10.096;2022-12-18T10:33:00;59.30;;;22.33;;
45548;SDS011;31270;48.328;10.096;2022-12-18T10:35:27;56.73;;;22.33;;
45548;SDS011;31270;48.328;10.096;2022-12-18T10:37:59;62.63;;;23.43;;
45548;SDS011;31270;48.328;10.096;2022-12-18T10:40:26;65.80;;;22.70;;
45548;SDS011;31270;48.328;10.096;2022-12-18T10:45:37;54.23;;;21.40;;
45548;SDS011;31270;48.328;10.096;2022-12-18T10:48:03;61.30;;;23.23;;
45548;SDS011;31270;48.328;10.096;2022-12-18T10:50:30;57.97;;;23.20;;
45548;SDS011;31270;48.328;10.096;2022-12-18T10:52:58;48.80;;;21.17;;
45548;SDS011;31270;48.328;10.096;2022-12-18T10:55:59;46.53;;;19.30;;
45548;SDS011;31270;48.328;10.096;2022-12-18T11:01:03;45.80;;;20.23;;
45548;SDS011;31270;48.328;10.096;2022-12-18T11:08:38;48.37;;;20.57;;
45548;SDS011;31270;48.328;10.096;2022-12-18T11:11:07;53.37;;;21.50;;
45548;SDS011;31270;48.328;10.096;2022-12-18T11:13:41;47.63;;;20.27;;
45548;SDS011;31270;48.328;10.096;2022-12-18T11:16:26;47.50;;;19.83;;
45548;SDS011;31270;48.328;10.096;2022-12-18T11:18:52;51.10;;;20.80;;
45548;SDS011;31270;48.328;10.096;2022-12-18T11:21:18;49.87;;;20.63;;
45548;SDS011;31270;48.328;10.096;2022-12-18T11:23:46;42.13;;;18.73;;
45548;SDS011;31270;48.328;10.096;2022-12-18T11:26:14;48.50;;;20.10;;
45548;SDS011;31270;48.328;10.096;2022-12-18T11:28:44;46.33;;;20.87;;
45548;SDS011;31270;48.328;10.096;2022-12-18T11:31:24;48.27;;;21.67;;
45548;SDS011;31270;48.328;10.096;2022-12-18T11:33:58;51.73;;;21.83;;
45548;SDS011;31270;48.328;10.096;2022-12-18T11:36:29;51.43;;;20.43;;
45548;SDS011;31270;48.328;10.096;2022-12-18T11:38:59;47.20;;;20.40;;
45548;SDS011;31270;48.328;10.096;2022-12-18T11:41:48;48.27;;;19.27;;
45548;SDS011;31270;48.328;10.096;2022-12-18T11:44:39;49.20;;;20.33;;
45548;SDS011;31270;48.328;10.096;2022-12-18T11:50:00;43.23;;;18.60;;
45548;SDS011;31270;48.328;10.096;2022-12-18T11:52:32;49.20;;;18.70;;
45548;SDS011;31270;48.328;10.096;2022-12-18T11:55:16;49.37;;;19.63;;
45548;SDS011;31270;48.328;10.096;2022-12-18T11:58:06;63.00;;;26.47;;
45548;SDS011;31270;48.328;10.096;2022-12-18T12:00:42;52.73;;;20.57;;
45548;SDS011;31270;48.328;10.096;2022-12-18T12:03:24;41.23;;;18.93;;
45548;SDS011;31270;48.328;10.096;2022-12-18T12:09:02;47.10;;;17.87;;
45548;SDS011;31270;48.328;10.096;2022-12-18T12:25:19;42.47;;;17.90;;
45548;SDS011;31270;48.328;10.096;2022-12-18T12:28:17;40.87;;;17.60;;
45548;SDS011;31270;48.328;10.096;2022-12-18T12:33:40;48.37;;;19.20;;
45548;SDS011;31270;48.328;10.096;2022-12-18T12:36:26;43.30;;;17.70;;
45548;SDS011;31270;48.328;10.096;2022-12-18T12:39:06;44.50;;;18.07;;
45548;SDS011;31270;48.328;10.096;2022-12-18T12:41:35;49.00;;;19.23;;
45548;SDS011;31270;48.328;10.096;2022-12-18T12:44:22;46.63;;;20.30;;
45548;SDS011;31270;48.328;10.096;2022-12-18T12:46:52;44.97;;;18.57;;
45548;SDS011;31270;48.328;10.096;2022-12-18T12:49:25;45.77;;;19.87;;
45548;SDS011;31270;48.328;10.096;2022-12-18T12:52:04;49.47;;;20.50;;
45548;SDS011;31270;48.328;10.096;2022-12-18T12:54:32;46.03;;;18.90;;
45548;SDS011;31270;48.328;10.096;2022-12-18T12:57:02;44.83;;;18.20;;
45548;SDS011;31270;48.328;10.096;2022-12-18T12:59:35;38.13;;;18.17;;
45548;SDS011;31270;48.328;10.096;2022-12-18T13:02:14;42.07;;;19.13;;
45548;SDS011;31270;48.328;10.096;2022-12-18T13:04:47;45.53;;;19.43;;
45548;SDS011;31270;48.328;10.096;2022-12-18T13:07:24;44.33;;;18.10;;
45548;SDS011;31270;48.328;10.096;2022-12-18T13:15:32;45.67;;;19.03;;
45548;SDS011;31270;48.328;10.096;2022-12-18T13:18:03;48.70;;;19.87;;
45548;SDS011;31270;48.328;10.096;2022-12-18T13:25:49;43.17;;;18.40;;
45548;SDS011;31270;48.328;10.096;2022-12-18T13:28:16;46.53;;;18.73;;
45548;SDS011;31270;48.328;10.096;2022-12-18T13:30:47;47.60;;;20.87;;
45548;SDS011;31270;48.328;10.096;2022-12-18T13:39:08;51.50;;;20.60;;
45548;SDS011;31270;48.328;10.096;2022-12-18T13:41:36;44.83;;;19.90;;
45548;SDS011;31270;48.328;10.096;2022-12-18T13:44:11;44.73;;;18.80;;
45548;SDS011;31270;48.328;10.096;2022-12-18T13:46:49;44.37;;;19.67;;
45548;SDS011;31270;48.328;10.096;2022-12-18T13:49:21;46.33;;;19.40;;
45548;SDS011;31270;48.328;10.096;2022-12-18T13:52:14;50.33;;;21.20;;
45548;SDS011;31270;48.328;10.096;2022-12-18T13:54:42;45.60;;;18.90;;
45548;SDS011;31270;48.328;10.096;2022-12-18T13:59:53;38.60;;;17.13;;
45548;SDS011;31270;48.328;10.096;2022-12-18T14:02:26;42.60;;;19.10;;
45548;SDS011;31270;48.328;10.096;2022-12-18T14:04:53;48.37;;;19.20;;
45548;SDS011;31270;48.328;10.096;2022-12-18T14:07:23;47.13;;;18.93;;
45548;SDS011;31270;48.328;10.096;2022-12-18T14:09:57;40.57;;;17.37;;
45548;SDS011;31270;48.328;10.096;2022-12-18T14:12:29;48.17;;;18.53;;
45548;SDS011;31270;48.328;10.096;2022-12-18T14:18:03;40.47;;;17.70;;
45548;SDS011;31270;48.328;10.096;2022-12-18T14:20:57;43.57;;;16.50;;
45548;SDS011;31270;48.328;10.096;2022-12-18T14:26:02;41.87;;;17.23;;
45548;SDS011;31270;48.328;10.096;2022-12-18T14:28:44;41.40;;;17.53;;
45548;SDS011;31270;48.328;10.096;2022-12-18T14:31:17;38.50;;;16.80;;
45548;SDS011;31270;48.328;10.096;2022-12-18T14:33:53;45.10;;;17.67;;
45548;SDS011;31270;48.328;10.096;2022-12-18T14:36:20;44.53;;;17.33;;
45548;SDS011;31270;48.328;10.096;2022-12-18T14:38:52;35.90;;;15.90;;
45548;SDS011;31270;48.328;10.096;2022-12-18T14:41:19;42.23;;;17.93;;
45548;SDS011;31270;48.328;10.096;2022-12-18T14:43:47;43.37;;;17.47;;
45548;SDS011;31270;48.328;10.096;2022-12-18T14:48:58;43.37;;;16.87;;
45548;SDS011;31270;48.328;10.096;2022-12-18T14:51:27;38.87;;;16.20;;
45548;SDS011;31270;48.328;10.096;2022-12-18T14:53:58;38.87;;;16.83;;
45548;SDS011;31270;48.328;10.096;2022-12-18T14:56:26;46.30;;;22.13;;
45548;SDS011;31270;48.328;10.096;2022-12-18T15:03:48;37.03;;;15.70;;
45548;SDS011;31270;48.328;10.096;2022-12-18T15:06:37;46.90;;;22.30;;
45548;SDS011;31270;48.328;10.096;2022-12-18T15:09:21;44.27;;;18.87;;
45548;SDS011;31270;48.328;10.096;2022-12-18T15:11:49;40.70;;;18.57;;
45548;SDS011;31270;48.328;10.096;2022-12-18T15:16:55;67.37;;;34.20;;
45548;SDS011;31270;48.328;10.096;2022-12-18T15:19:22;46.00;;;20.90;;
45548;SDS011;31270;48.328;10.096;2022-12-18T15:25:02;38.83;;;15.77;;
45548;SDS011;31270;48.328;10.096;2022-12-18T15:27:45;35.67;;;15.30;;
45548;SDS011;31270;48.328;10.096;2022-12-18T15:30:17;39.90;;;16.37;;
45548;SDS011;31270;48.328;10.096;2022-12-18T15:32:44;42.53;;;17.40;;
45548;SDS011;31270;48.328;10.096;2022-12-18T15:37:39;46.67;;;18.90;;
45548;SDS011;31270;48.328;10.096;2022-12-18T15:40:06;40.07;;;16.23;;
45548;SDS011;31270;48.328;10.096;2022-12-18T15:42:33;39.80;;;17.00;;
45548;SDS011;31270;48.328;10.096;2022-12-18T15:45:17;39.97;;;17.30;;
45548;SDS011;31270;48.328;10.096;2022-12-18T15:47:43;37.57;;;17.23;;
45548;SDS011;31270;48.328;10.096;2022-12-18T15:50:09;40.53;;;16.63;;
45548;SDS011;31270;48.328;10.096;2022-12-18T15:52:39;44.53;;;17.90;;
45548;SDS011;31270;48.328;10.096;2022-12-18T15:55:12;47.43;;;18.43;;
45548;SDS011;31270;48.328;10.096;2022-12-18T15:57:57;46.77;;;18.27;;
45548;SDS011;31270;48.328;10.096;2022-12-18T16:00:23;39.80;;;16.53;;
45548;SDS011;31270;48.328;10.096;2022-12-18T16:02:48;42.23;;;18.23;;
45548;SDS011;31270;48.328;10.096;2022-12-18T16:05:14;41.17;;;17.00;;
45548;SDS011;31270;48.328;10.096;2022-12-18T16:07:42;47.47;;;18.20;;